Terminal Aerodrome Forecast
Issued by NWS Midland/Odessa, TX

Home | Current Version | Previous Version | Text Only | Print | Product List | Glossary On
Versions: 1 2 3 4 5 6 7 8 9 10 11 12 13 14
533
FTUS44 KMAF 010237 AAA
TAFMAF
TAF AMD
KMAF 010237Z 0103/0124 09015G23KT P6SM SCT120
     FM011000 07020G30KT P6SM OVC015
     FM011800 03017G25KT P6SM OVC030=

USA.gov is the U.S. government's official web portal to all federal, state and local government web resources and services.